createdAt,value
2024-05-09T00:00:06.418Z,84.50
2024-05-09T00:01:04.445Z,84.50
2024-05-09T00:02:04.533Z,84.39
2024-05-09T00:03:04.448Z,84.39
2024-05-09T00:04:04.555Z,84.39
2024-05-09T00:05:04.515Z,84.39
2024-05-09T00:06:04.511Z,84.39
2024-05-09T00:07:04.370Z,84.29
2024-05-09T00:08:04.583Z,84.29
2024-05-09T00:09:04.358Z,84.19
2024-05-09T00:10:05.566Z,84.29
2024-05-09T00:11:04.533Z,84.39
2024-05-09T00:12:04.417Z,84.29
2024-05-09T00:13:04.333Z,84.29
2024-05-09T00:14:04.338Z,84.29
2024-05-09T00:15:04.318Z,84.29
2024-05-09T00:16:04.296Z,84.29
2024-05-09T00:17:04.331Z,84.19
2024-05-09T00:18:05.208Z,84.39
2024-05-09T00:19:04.440Z,84.50
2024-05-09T00:20:10.921Z,84.74
2024-05-09T00:21:04.466Z,84.74
2024-05-09T00:22:04.241Z,84.84
2024-05-09T00:23:04.242Z,84.74
2024-05-09T00:24:04.212Z,84.74
2024-05-09T00:25:04.219Z,84.74
2024-05-09T00:26:04.219Z,84.74
2024-05-09T00:27:04.189Z,84.64
2024-05-09T00:28:04.178Z,84.64
2024-05-09T00:29:04.254Z,84.64
2024-05-09T00:30:04.367Z,84.64
2024-05-09T00:31:04.187Z,84.64
2024-05-09T00:32:04.270Z,84.53
2024-05-09T00:33:05.354Z,84.43
2024-05-09T00:34:04.230Z,84.33
2024-05-09T00:35:04.171Z,84.33
2024-05-09T00:36:04.096Z,84.33
2024-05-09T00:37:04.106Z,84.43
2024-05-09T00:38:04.584Z,84.43
2024-05-09T00:39:04.080Z,84.53
2024-05-09T00:40:05.779Z,84.43
2024-05-09T00:41:04.114Z,84.43
2024-05-09T00:42:04.044Z,84.64
2024-05-09T00:43:04.043Z,84.64
2024-05-09T00:44:04.030Z,84.64
2024-05-09T00:45:04.053Z,84.53
2024-05-09T00:46:04.014Z,84.64
2024-05-09T00:47:04.090Z,84.74
2024-05-09T00:48:04.231Z,84.64
2024-05-09T00:49:04.133Z,84.64
2024-05-09T00:50:05.548Z,84.64
2024-05-09T00:51:04.027Z,84.64
2024-05-09T00:52:03.950Z,84.43
2024-05-09T00:53:04.036Z,84.33
2024-05-09T00:54:03.927Z,84.23
2024-05-09T00:55:03.930Z,84.23
2024-05-09T00:56:03.947Z,84.23
2024-05-09T00:57:03.935Z,84.23
2024-05-09T00:58:03.895Z,84.12
2024-05-09T00:59:03.916Z,84.03
2024-05-09T01:00:06.090Z,84.03
2024-05-09T01:01:03.983Z,84.17
2024-05-09T01:02:03.958Z,84.17
2024-05-09T01:03:03.996Z,84.27
2024-05-09T01:04:04.123Z,84.17
2024-05-09T01:05:03.959Z,84.27
2024-05-09T01:06:03.899Z,84.17
2024-05-09T01:07:03.814Z,84.37
2024-05-09T01:08:03.820Z,84.47
2024-05-09T01:09:03.790Z,84.58
2024-05-09T01:10:05.516Z,84.58
2024-05-09T01:11:03.938Z,84.72
2024-05-09T01:12:04.087Z,84.72
2024-05-09T01:13:03.786Z,84.82
2024-05-09T01:14:03.798Z,84.82
2024-05-09T01:15:03.742Z,84.67
2024-05-09T01:16:03.728Z,84.67
2024-05-09T01:17:03.728Z,84.72
2024-05-09T01:18:04.048Z,84.67
2024-05-09T01:19:03.763Z,84.58
2024-05-09T01:20:06.254Z,84.58
2024-05-09T01:21:03.705Z,84.51
2024-05-09T01:22:03.680Z,84.51
2024-05-09T01:23:03.768Z,84.51
2024-05-09T01:24:03.672Z,84.51
2024-05-09T01:25:03.667Z,84.47
2024-05-09T01:26:03.639Z,84.37
2024-05-09T01:27:03.632Z,84.37
2024-05-09T01:28:03.635Z,84.37
2024-05-09T01:29:03.679Z,84.27
2024-05-09T01:30:08.991Z,84.17
2024-05-09T01:31:03.586Z,84.20
2024-05-09T01:32:03.647Z,84.31
2024-05-09T01:33:04.044Z,84.41
2024-05-09T01:34:03.637Z,84.41
2024-05-09T01:35:03.583Z,84.20
2024-05-09T01:36:03.540Z,84.20
2024-05-09T01:37:03.540Z,84.31
2024-05-09T01:38:03.806Z,84.31
2024-05-09T01:39:03.528Z,84.51
2024-05-09T01:40:03.701Z,84.51
2024-05-09T01:41:03.524Z,84.61
2024-05-09T01:42:03.480Z,84.61
2024-05-09T01:43:03.491Z,84.51
2024-05-09T01:44:03.515Z,84.61
2024-05-09T01:45:03.469Z,84.86
2024-05-09T01:46:03.450Z,84.82
2024-05-09T01:47:03.453Z,84.86
2024-05-09T01:48:03.901Z,84.86
2024-05-09T01:49:03.484Z,84.75
2024-05-09T01:50:03.638Z,84.75
2024-05-09T01:51:03.454Z,84.75
2024-05-09T01:52:03.390Z,84.75
2024-05-09T01:53:03.423Z,84.86
2024-05-09T01:54:03.376Z,85.06
2024-05-09T01:55:05.755Z,85.47
2024-05-09T01:56:03.434Z,85.98
2024-05-09T01:57:03.347Z,86.22
2024-05-09T01:58:03.334Z,86.53
2024-05-09T01:59:03.364Z,86.73
2024-05-09T02:00:03.854Z,86.88
2024-05-09T02:01:03.350Z,86.98
2024-05-09T02:02:03.517Z,86.67
2024-05-09T02:03:03.480Z,86.57
2024-05-09T02:04:03.483Z,86.67
2024-05-09T02:05:03.483Z,86.77
2024-05-09T02:06:03.402Z,86.77
2024-05-09T02:07:03.280Z,86.67
2024-05-09T02:08:03.413Z,86.67
2024-05-09T02:09:03.228Z,86.47
2024-05-09T02:10:06.580Z,86.36
2024-05-09T02:11:03.430Z,86.26
2024-05-09T02:12:03.295Z,86.36
2024-05-09T02:13:03.199Z,86.26
2024-05-09T02:14:03.196Z,86.36
2024-05-09T02:15:03.174Z,86.36
2024-05-09T02:16:03.164Z,86.47
2024-05-09T02:17:03.159Z,86.41
2024-05-09T02:18:03.381Z,86.51
2024-05-09T02:19:03.228Z,86.82
2024-05-09T02:20:03.688Z,86.91
2024-05-09T02:21:03.342Z,87.23
2024-05-09T02:22:03.098Z,87.57
2024-05-09T02:23:03.282Z,87.77
2024-05-09T02:24:03.082Z,87.77
2024-05-09T02:25:03.078Z,87.88
2024-05-09T02:26:03.144Z,87.88
2024-05-09T02:27:03.093Z,87.88
2024-05-09T02:28:03.101Z,87.77
2024-05-09T02:29:03.073Z,87.57
2024-05-09T02:30:04.743Z,87.47
2024-05-09T02:31:03.022Z,87.37
2024-05-09T02:32:03.159Z,87.26
2024-05-09T02:33:03.176Z,87.06
2024-05-09T02:34:03.335Z,86.96
2024-05-09T02:35:03.143Z,86.96
2024-05-09T02:36:02.983Z,86.96
2024-05-09T02:37:02.985Z,86.76
2024-05-09T02:38:03.173Z,86.55
2024-05-09T02:39:02.953Z,86.65
2024-05-09T02:40:03.461Z,86.65
2024-05-09T02:41:02.964Z,86.76
2024-05-09T02:42:02.935Z,86.85
2024-05-09T02:43:02.902Z,86.65
2024-05-09T02:44:02.976Z,86.44
2024-05-09T02:45:02.889Z,86.44
2024-05-09T02:46:02.886Z,86.55
2024-05-09T02:47:02.896Z,86.65
2024-05-09T02:48:03.222Z,86.69
2024-05-09T02:49:03.051Z,86.79
2024-05-09T02:50:03.657Z,86.90
2024-05-09T02:51:03.044Z,87.10
2024-05-09T02:52:02.818Z,87.10
2024-05-09T02:53:02.828Z,87.30
2024-05-09T02:54:02.848Z,87.41
2024-05-09T02:55:02.804Z,87.41
2024-05-09T02:56:02.852Z,87.55
2024-05-09T02:57:02.772Z,87.76
2024-05-09T02:58:02.829Z,87.76
2024-05-09T02:59:02.820Z,87.85
2024-05-09T03:00:03.589Z,87.76
2024-05-09T03:01:02.787Z,87.76
2024-05-09T03:02:02.856Z,87.76
2024-05-09T03:03:02.907Z,87.85
2024-05-09T03:04:02.883Z,87.76
2024-05-09T03:05:02.746Z,87.55
2024-05-09T03:06:02.706Z,87.45
2024-05-09T03:07:02.678Z,87.24
2024-05-09T03:08:02.707Z,87.14
2024-05-09T03:09:02.657Z,86.94
2024-05-09T03:10:03.364Z,86.83
2024-05-09T03:11:02.683Z,86.73
2024-05-09T03:12:02.781Z,86.83
2024-05-09T03:13:02.623Z,86.83
2024-05-09T03:14:02.695Z,87.04
2024-05-09T03:15:02.547Z,86.83
2024-05-09T03:16:02.560Z,86.73
2024-05-09T03:17:02.600Z,86.53
2024-05-09T03:18:02.899Z,86.43
2024-05-09T03:19:02.631Z,86.32
2024-05-09T03:20:03.097Z,86.12
2024-05-09T03:21:02.623Z,86.02
2024-05-09T03:22:02.507Z,85.91
2024-05-09T03:23:02.860Z,85.91
2024-05-09T03:24:02.531Z,85.91
2024-05-09T03:25:02.483Z,86.12
2024-05-09T03:26:02.532Z,86.02
2024-05-09T03:27:02.441Z,86.12
2024-05-09T03:28:02.442Z,86.02
2024-05-09T03:29:02.457Z,86.32
2024-05-09T03:30:03.830Z,86.73
2024-05-09T03:31:02.409Z,87.55
2024-05-09T03:32:02.529Z,88.10
2024-05-09T03:33:02.540Z,88.41
2024-05-09T03:34:02.509Z,88.51
2024-05-09T03:35:02.450Z,88.10
2024-05-09T03:36:02.376Z,87.18
2024-05-09T03:37:02.357Z,87.08
2024-05-09T03:38:02.413Z,87.08
2024-05-09T03:39:02.359Z,87.38
2024-05-09T03:40:02.927Z,87.59
2024-05-09T03:41:02.346Z,87.70
2024-05-09T03:42:02.298Z,87.94
2024-05-09T03:43:02.292Z,87.90
2024-05-09T03:44:02.309Z,87.94
2024-05-09T03:45:02.345Z,88.00
2024-05-09T03:46:02.283Z,87.90
2024-05-09T03:47:02.311Z,87.70
2024-05-09T03:48:02.471Z,87.43
2024-05-09T03:49:02.346Z,86.98
2024-05-09T03:50:02.329Z,87.02
2024-05-09T03:51:02.277Z,87.22
2024-05-09T03:52:02.208Z,87.22
2024-05-09T03:53:02.357Z,87.32
2024-05-09T03:54:02.174Z,87.22
2024-05-09T03:55:02.178Z,87.32
2024-05-09T03:56:02.255Z,87.22
2024-05-09T03:57:02.156Z,87.12
2024-05-09T03:58:02.151Z,86.91
2024-05-09T03:59:02.178Z,86.71
2024-05-09T04:00:02.994Z,86.61
2024-05-09T04:01:02.142Z,86.61
2024-05-09T04:02:02.244Z,86.51
2024-05-09T04:03:02.465Z,86.30
2024-05-09T04:04:02.124Z,86.20
2024-05-09T04:05:02.145Z,86.20
2024-05-09T04:06:02.062Z,86.30
2024-05-09T04:07:02.047Z,86.40
2024-05-09T04:08:02.258Z,86.40
2024-05-09T04:09:02.057Z,86.30
2024-05-09T04:10:02.248Z,86.30
2024-05-09T04:11:02.078Z,86.30
2024-05-09T04:12:02.176Z,86.51
2024-05-09T04:13:02.508Z,86.61
2024-05-09T04:14:02.067Z,86.91
2024-05-09T04:15:01.975Z,87.02
2024-05-09T04:16:01.963Z,87.12
2024-05-09T04:17:01.971Z,87.37
2024-05-09T04:18:02.681Z,87.47
2024-05-09T04:19:01.999Z,87.67
2024-05-09T04:20:02.102Z,87.88
2024-05-09T04:21:02.042Z,87.98
2024-05-09T04:22:01.930Z,87.98
2024-05-09T04:23:02.016Z,87.98
2024-05-09T04:24:01.883Z,87.88
2024-05-09T04:25:01.877Z,87.88
2024-05-09T04:26:01.910Z,87.77
2024-05-09T04:27:01.855Z,87.57
2024-05-09T04:28:01.884Z,87.67
2024-05-09T04:29:01.878Z,87.77
2024-05-09T04:30:01.839Z,87.77
2024-05-09T04:31:01.831Z,87.67
2024-05-09T04:32:01.966Z,87.57
2024-05-09T04:33:02.018Z,87.67
2024-05-09T04:34:01.956Z,87.57
2024-05-09T04:35:01.787Z,87.67
2024-05-09T04:36:01.783Z,87.77
2024-05-09T04:37:01.767Z,87.88
2024-05-09T04:38:01.873Z,88.08
2024-05-09T04:39:01.737Z,88.70
2024-05-09T04:40:01.768Z,88.59
2024-05-09T04:41:01.879Z,88.24
2024-05-09T04:42:01.731Z,88.24
2024-05-09T04:43:01.694Z,88.35
2024-05-09T04:44:01.774Z,88.45
2024-05-09T04:45:01.703Z,88.56
2024-05-09T04:46:01.716Z,88.56
2024-05-09T04:47:01.709Z,88.56
2024-05-09T04:48:02.422Z,88.56
2024-05-09T04:49:01.735Z,88.45
2024-05-09T04:50:01.792Z,88.45
2024-05-09T04:51:01.700Z,88.45
2024-05-09T04:52:01.616Z,88.45
2024-05-09T04:53:01.657Z,88.65
2024-05-09T04:54:01.631Z,88.86
2024-05-09T04:55:01.591Z,89.06
2024-05-09T04:56:01.668Z,89.17
2024-05-09T04:57:01.572Z,89.17
2024-05-09T04:58:01.595Z,89.06
2024-05-09T04:59:01.584Z,88.86
2024-05-09T05:00:01.562Z,88.86
2024-05-09T05:01:01.584Z,88.86
2024-05-09T05:02:01.599Z,88.86
2024-05-09T05:03:01.746Z,88.82
2024-05-09T05:04:01.696Z,88.82
2024-05-09T05:05:01.603Z,88.92
2024-05-09T05:06:01.678Z,88.92
2024-05-09T05:07:02.813Z,88.92
2024-05-09T05:08:01.675Z,88.71
2024-05-09T05:09:01.475Z,88.57
2024-05-09T05:10:01.453Z,88.57
2024-05-09T05:11:01.540Z,88.47
2024-05-09T05:12:01.546Z,88.57
2024-05-09T05:13:01.423Z,88.47
2024-05-09T05:14:01.467Z,88.37
2024-05-09T05:15:01.413Z,88.47
2024-05-09T05:16:01.396Z,88.88
2024-05-09T05:17:01.455Z,89.39
2024-05-09T05:18:01.494Z,89.59
2024-05-09T05:19:01.497Z,89.59
2024-05-09T05:20:01.578Z,89.39
2024-05-09T05:21:01.391Z,89.18
2024-05-09T05:22:01.338Z,89.18
2024-05-09T05:23:01.503Z,89.18
2024-05-09T05:24:01.311Z,89.09
2024-05-09T05:25:01.349Z,88.98
2024-05-09T05:26:01.314Z,88.94
2024-05-09T05:27:01.298Z,88.84
2024-05-09T05:28:01.321Z,89.04
2024-05-09T05:29:01.363Z,89.25
2024-05-09T05:30:01.269Z,89.35
2024-05-09T05:31:01.266Z,89.20
2024-05-09T05:32:01.370Z,89.31
2024-05-09T05:33:01.490Z,89.41
2024-05-09T05:34:01.335Z,89.20
2024-05-09T05:35:01.343Z,89.11
2024-05-09T05:36:01.201Z,89.20
2024-05-09T05:37:01.247Z,88.96
2024-05-09T05:38:01.317Z,88.76
2024-05-09T05:39:01.206Z,88.76
2024-05-09T05:40:01.164Z,88.76
2024-05-09T05:41:01.282Z,88.65
2024-05-09T05:42:01.153Z,88.76
2024-05-09T05:43:01.142Z,89.06
2024-05-09T05:44:01.171Z,89.17
2024-05-09T05:45:01.120Z,88.82
2024-05-09T05:46:01.136Z,88.71
2024-05-09T05:47:01.143Z,88.61
2024-05-09T05:48:01.393Z,88.71
2024-05-09T05:49:01.154Z,88.51
2024-05-09T05:50:01.320Z,88.61
2024-05-09T05:51:04.259Z,89.02
2024-05-09T05:52:01.083Z,89.02
2024-05-09T05:53:01.111Z,89.02
2024-05-09T05:54:01.031Z,89.23
2024-05-09T05:55:01.061Z,89.02
2024-05-09T05:56:01.122Z,88.51
2024-05-09T05:57:01.010Z,88.41
2024-05-09T05:58:00.996Z,87.90
2024-05-09T05:59:01.015Z,87.55
2024-05-09T06:00:00.976Z,87.14
2024-05-09T06:01:01.031Z,86.22
2024-05-09T06:02:01.164Z,85.82
2024-05-09T06:03:00.991Z,85.30
2024-05-09T06:04:01.007Z,84.86
2024-05-09T06:05:01.090Z,84.55
2024-05-09T06:06:01.081Z,84.55
2024-05-09T06:07:00.922Z,84.34
2024-05-09T06:08:01.115Z,84.25
2024-05-09T06:09:00.892Z,83.94
2024-05-09T06:10:00.888Z,83.59
2024-05-09T06:11:01.013Z,82.98
2024-05-09T06:12:01.064Z,82.68
2024-05-09T06:13:00.879Z,82.68
2024-05-09T06:14:00.872Z,82.98
2024-05-09T06:15:00.845Z,83.18
2024-05-09T06:16:00.879Z,82.54
2024-05-09T06:17:00.844Z,82.33
2024-05-09T06:18:01.208Z,81.31
2024-05-09T06:19:00.923Z,80.80
2024-05-09T06:20:00.831Z,80.80
2024-05-09T06:21:00.820Z,80.66
2024-05-09T06:22:00.777Z,79.75
2024-05-09T06:23:00.830Z,79.75
2024-05-09T06:24:02.612Z,79.34
2024-05-09T06:25:00.730Z,78.63
2024-05-09T06:26:00.843Z,78.63
2024-05-09T06:27:00.741Z,79.20
2024-05-09T06:28:00.777Z,79.30
2024-05-09T06:29:00.747Z,79.30
2024-05-09T06:30:00.691Z,79.41
2024-05-09T06:31:00.679Z,79.37
2024-05-09T06:32:00.932Z,79.27
2024-05-09T06:33:00.842Z,78.55
2024-05-09T06:34:00.766Z,78.35
2024-05-09T06:35:00.708Z,80.29
2024-05-09T06:36:00.687Z,79.98
2024-05-09T06:37:00.638Z,79.57
2024-05-09T06:38:00.753Z,80.90
2024-05-09T06:39:00.599Z,81.06
2024-05-09T06:40:00.616Z,78.92
2024-05-09T06:41:00.645Z,77.50
2024-05-09T06:42:00.634Z,78.21
2024-05-09T06:43:00.609Z,79.02
2024-05-09T06:44:00.604Z,77.70
2024-05-09T06:45:00.621Z,78.11
2024-05-09T06:46:00.570Z,77.50
2024-05-09T06:47:00.670Z,77.91
2024-05-09T06:48:00.840Z,77.81
2024-05-09T06:49:00.612Z,77.70
2024-05-09T06:50:00.617Z,77.67
2024-05-09T06:51:00.582Z,77.16
2024-05-09T06:52:00.497Z,76.45
2024-05-09T06:53:00.616Z,77.36
2024-05-09T06:54:00.488Z,77.56
2024-05-09T06:55:00.463Z,76.25
2024-05-09T06:56:00.513Z,75.70
2024-05-09T06:57:00.463Z,75.09
2024-05-09T06:58:00.450Z,74.99
2024-05-09T06:59:00.624Z,74.38
2024-05-09T07:00:00.438Z,73.97
2024-05-09T07:01:00.443Z,75.16
2024-05-09T07:02:00.445Z,75.56
2024-05-09T07:03:03.508Z,75.56
2024-05-09T07:04:00.453Z,75.46
2024-05-09T07:05:00.529Z,74.95
2024-05-09T07:06:00.430Z,74.71
2024-05-09T07:07:00.351Z,74.98
2024-05-09T07:08:00.409Z,74.44
2024-05-09T07:09:00.347Z,73.56
2024-05-09T07:10:00.361Z,71.77
2024-05-09T07:11:00.354Z,69.34
2024-05-09T07:12:00.400Z,65.61
2024-05-09T07:13:00.306Z,62.70
2024-05-09T07:14:00.357Z,60.72
2024-05-09T07:15:00.274Z,60.89
2024-05-09T07:16:00.262Z,59.23
2024-05-09T07:17:00.329Z,58.27
2024-05-09T07:18:00.361Z,56.51
2024-05-09T07:19:00.398Z,53.05
2024-05-09T07:20:00.446Z,52.32
2024-05-09T07:21:00.243Z,50.67
2024-05-09T07:22:00.236Z,51.34
2024-05-09T07:23:00.265Z,50.24
2024-05-09T07:24:00.209Z,49.91
2024-05-09T07:25:00.211Z,47.99
2024-05-09T07:26:00.224Z,47.09
2024-05-09T07:27:00.178Z,46.85
2024-05-09T07:28:00.164Z,47.42
2024-05-09T07:29:00.224Z,47.72
2024-05-09T07:30:00.159Z,45.53
2024-05-09T07:31:00.154Z,47.27
2024-05-09T07:32:00.172Z,47.25
2024-05-09T07:33:00.610Z,46.73
2024-05-09T07:34:00.275Z,45.31
2024-05-09T07:35:00.163Z,44.59
2024-05-09T07:36:00.082Z,44.37
2024-05-09T07:37:00.088Z,43.65
2024-05-09T07:38:00.148Z,43.75
2024-05-09T07:39:00.058Z,43.73
2024-05-09T07:40:00.069Z,42.29
2024-05-09T07:41:00.135Z,41.30
2024-05-09T07:42:00.055Z,41.47
2024-05-09T07:43:00.043Z,40.86
2024-05-09T07:44:00.085Z,40.24
2024-05-09T07:45:14.908Z,39.84
2024-05-09T07:46:37.785Z,39.61
2024-05-09T07:49:12.081Z,39.41
2024-05-09T07:53:20.370Z,37.26
2024-05-09T07:53:46.195Z,36.44
2024-05-09T07:53:57.246Z,36.84
2024-05-09T07:54:53.469Z,36.43
2024-05-09T07:55:53.444Z,36.33
2024-05-09T07:56:53.457Z,36.51
2024-05-09T07:57:53.263Z,36.23
2024-05-09T07:58:53.305Z,37.04
2024-05-09T07:59:53.207Z,37.81
2024-05-09T08:00:53.331Z,38.01
2024-05-09T08:01:53.296Z,37.60
2024-05-09T08:02:53.230Z,36.69
2024-05-09T08:03:53.526Z,35.89
2024-05-09T08:04:53.289Z,35.49
2024-05-09T08:05:53.289Z,34.67
2024-05-09T08:06:53.160Z,33.87
2024-05-09T08:07:53.126Z,33.75
2024-05-09T08:08:53.143Z,33.16
2024-05-09T08:09:53.132Z,33.85
2024-05-09T08:10:53.265Z,33.65
2024-05-09T08:11:53.154Z,34.05
2024-05-09T08:12:53.164Z,33.44
2024-05-09T08:13:53.105Z,33.04
2024-05-09T08:14:53.109Z,32.14
2024-05-09T08:15:53.186Z,32.62
2024-05-09T08:16:53.158Z,32.62
2024-05-09T08:17:53.098Z,32.72
2024-05-09T08:18:53.146Z,32.60
2024-05-09T08:19:53.092Z,32.29
2024-05-09T08:20:53.108Z,32.00
2024-05-09T08:21:53.017Z,31.70
2024-05-09T08:22:53.035Z,30.93
2024-05-09T08:23:53.003Z,32.11
2024-05-09T08:24:53.162Z,31.92
2024-05-09T08:25:53.048Z,32.01
2024-05-09T08:26:52.960Z,31.51
2024-05-09T08:27:53.093Z,31.29
2024-05-09T08:28:52.963Z,30.79
2024-05-09T08:29:53.491Z,30.40
2024-05-09T08:30:53.087Z,30.28
2024-05-09T08:31:52.967Z,29.69
2024-05-09T08:32:53.001Z,29.68
2024-05-09T08:33:53.180Z,30.27
2024-05-09T08:34:52.941Z,30.07
2024-05-09T08:35:52.889Z,30.10
2024-05-09T08:36:52.950Z,30.51
2024-05-09T08:37:52.890Z,30.59
2024-05-09T08:38:52.870Z,31.20
2024-05-09T08:39:52.902Z,31.69
2024-05-09T08:40:52.911Z,31.09
2024-05-09T08:41:52.836Z,30.98
2024-05-09T08:42:53.003Z,30.93
2024-05-09T08:43:52.828Z,31.90
2024-05-09T08:44:52.832Z,32.79
2024-05-09T08:45:52.840Z,32.59
2024-05-09T08:46:52.808Z,30.98
2024-05-09T08:47:52.965Z,31.16
2024-05-09T08:48:53.060Z,29.77
2024-05-09T08:49:52.886Z,29.37
2024-05-09T08:50:52.973Z,29.77
2024-05-09T08:51:52.792Z,30.36
2024-05-09T08:52:52.767Z,29.94
2024-05-09T08:53:52.788Z,29.14
2024-05-09T08:54:52.816Z,29.22
2024-05-09T08:55:52.750Z,30.25
2024-05-09T08:56:52.801Z,29.55
2024-05-09T08:57:52.836Z,29.73
2024-05-09T08:58:52.785Z,29.35
2024-05-09T08:59:52.715Z,29.16
2024-05-09T09:00:52.884Z,28.25
2024-05-09T09:01:52.765Z,29.07
2024-05-09T09:02:52.774Z,28.68
2024-05-09T09:03:52.925Z,28.67
2024-05-09T09:04:52.846Z,28.08
2024-05-09T09:05:52.850Z,30.21
2024-05-09T09:06:54.751Z,29.43
2024-05-09T09:07:52.646Z,29.33
2024-05-09T09:08:52.723Z,30.73
2024-05-09T09:09:52.728Z,31.83
2024-05-09T09:10:52.706Z,31.11
2024-05-09T09:11:52.729Z,32.16
2024-05-09T09:12:52.755Z,34.13
2024-05-09T09:13:52.599Z,35.34
2024-05-09T09:14:52.598Z,33.42
2024-05-09T09:15:52.642Z,32.32
2024-05-09T09:16:52.594Z,31.59
2024-05-09T09:17:52.795Z,31.35
2024-05-09T09:18:52.805Z,30.62
2024-05-09T09:19:52.672Z,30.15
2024-05-09T09:20:52.582Z,31.06
2024-05-09T09:21:52.621Z,32.49
2024-05-09T09:22:52.547Z,33.09
2024-05-09T09:23:52.526Z,35.75
2024-05-09T09:24:52.545Z,35.34
2024-05-09T09:25:52.532Z,35.04
2024-05-09T09:26:52.511Z,35.32
2024-05-09T09:27:52.541Z,34.61
2024-05-09T09:28:52.500Z,33.89
2024-05-09T09:29:52.487Z,34.50
2024-05-09T09:30:52.516Z,34.10
2024-05-09T09:31:52.499Z,33.80
2024-05-09T09:32:52.610Z,33.80
2024-05-09T09:33:52.717Z,33.79
2024-05-09T09:34:52.538Z,34.15
2024-05-09T09:35:52.455Z,35.37
2024-05-09T09:36:52.539Z,36.38
2024-05-09T09:37:52.430Z,36.60
2024-05-09T09:38:52.423Z,36.51
2024-05-09T09:39:52.475Z,36.83
2024-05-09T09:40:52.433Z,37.45
2024-05-09T09:41:52.397Z,38.26
2024-05-09T09:42:52.442Z,38.85
2024-05-09T09:43:52.384Z,38.75
2024-05-09T09:45:01.923Z,39.97
2024-05-09T09:45:53.349Z,40.88
2024-05-09T09:46:52.373Z,39.76
2024-05-09T09:47:52.508Z,40.06
2024-05-09T09:48:52.502Z,39.97
2024-05-09T09:49:52.407Z,40.03
2024-05-09T09:50:52.487Z,39.63
2024-05-09T09:51:52.371Z,39.63
2024-05-09T09:52:52.319Z,39.33
2024-05-09T09:53:52.322Z,39.63
2024-05-09T09:54:52.363Z,40.33
2024-05-09T09:55:52.323Z,40.38
2024-05-09T09:56:52.293Z,42.41
2024-05-09T09:57:52.327Z,42.71
2024-05-09T09:58:52.284Z,41.71
2024-05-09T09:59:52.291Z,42.31
2024-05-09T10:00:52.350Z,40.42
2024-05-09T10:01:52.303Z,40.22
2024-05-09T10:02:52.269Z,40.52
2024-05-09T10:03:52.425Z,40.74
2024-05-09T10:04:52.292Z,41.96
2024-05-09T10:05:52.233Z,43.85
2024-05-09T10:06:52.264Z,43.75
2024-05-09T10:07:52.198Z,43.25
2024-05-09T10:08:52.196Z,43.25
2024-05-09T10:09:52.233Z,42.55
2024-05-09T10:10:52.479Z,42.57
2024-05-09T10:11:54.523Z,43.27
2024-05-09T10:12:52.258Z,43.99
2024-05-09T10:13:52.145Z,45.23
2024-05-09T10:14:52.132Z,45.97
2024-05-09T10:15:52.532Z,47.60
2024-05-09T10:16:52.121Z,49.11
2024-05-09T10:17:52.204Z,49.54
2024-05-09T10:18:52.344Z,49.76
2024-05-09T10:19:52.194Z,48.84
2024-05-09T10:20:52.084Z,48.42
2024-05-09T10:21:52.140Z,46.92
2024-05-09T10:22:52.069Z,47.39
2024-05-09T10:23:52.092Z,48.60
2024-05-09T10:24:52.088Z,50.59
2024-05-09T10:25:52.035Z,51.52
2024-05-09T10:26:52.050Z,50.02
2024-05-09T10:27:52.072Z,49.32
2024-05-09T10:28:52.016Z,49.52
2024-05-09T10:29:52.002Z,47.49
2024-05-09T10:30:52.028Z,46.87
2024-05-09T10:31:52.024Z,45.87
2024-05-09T10:32:52.047Z,47.22
2024-05-09T10:33:52.904Z,48.72
2024-05-09T10:34:51.976Z,50.82
2024-05-09T10:35:51.953Z,49.22
2024-05-09T10:36:52.041Z,49.44
2024-05-09T10:37:51.930Z,49.07
2024-05-09T10:38:52.501Z,51.59
2024-05-09T10:39:51.931Z,50.79
2024-05-09T10:40:51.944Z,50.39
2024-05-09T10:41:51.889Z,49.69
2024-05-09T10:42:51.913Z,49.96
2024-05-09T10:43:52.074Z,48.89
2024-05-09T10:44:51.882Z,49.08
2024-05-09T10:45:51.908Z,48.99
2024-05-09T10:46:51.852Z,49.49
2024-05-09T10:47:52.087Z,49.79
2024-05-09T10:48:51.932Z,50.49
2024-05-09T10:49:51.873Z,50.99
2024-05-09T10:50:51.815Z,49.57
2024-05-09T10:51:51.874Z,49.34
2024-05-09T10:52:51.803Z,48.34
2024-05-09T10:53:51.815Z,48.02
2024-05-09T10:54:51.874Z,48.92
2024-05-09T10:55:51.765Z,48.42
2024-05-09T10:56:51.779Z,47.79
2024-05-09T10:57:51.802Z,46.19
2024-05-09T10:58:51.741Z,45.67
2024-05-09T10:59:51.734Z,45.37
2024-05-09T11:00:51.874Z,43.65
2024-05-09T11:01:51.809Z,44.25
2024-05-09T11:02:51.767Z,44.67
2024-05-09T11:03:51.822Z,45.47
2024-05-09T11:04:51.862Z,47.09
2024-05-09T11:05:51.742Z,48.61
2024-05-09T11:06:51.711Z,49.11
2024-05-09T11:07:51.669Z,47.52
2024-05-09T11:08:51.670Z,48.32
2024-05-09T11:09:51.661Z,49.62
2024-05-09T11:10:51.652Z,49.41
2024-05-09T11:11:51.724Z,48.61
2024-05-09T11:12:51.711Z,50.22
2024-05-09T11:13:51.604Z,46.51
2024-05-09T11:14:51.607Z,46.14
2024-05-09T11:15:51.745Z,45.14
2024-05-09T11:16:51.585Z,45.94
2024-05-09T11:17:51.679Z,46.34
2024-05-09T11:18:51.804Z,48.94
2024-05-09T11:19:51.590Z,47.94
2024-05-09T11:20:51.667Z,48.14
2024-05-09T11:21:51.647Z,46.44
2024-05-09T11:22:51.541Z,46.64
2024-05-09T11:23:51.521Z,46.14
2024-05-09T11:24:51.514Z,45.04
2024-05-09T11:25:51.515Z,46.66
2024-05-09T11:26:51.517Z,42.13
2024-05-09T11:27:51.548Z,42.05
2024-05-09T11:28:51.490Z,43.46
2024-05-09T11:29:51.461Z,41.66
2024-05-09T11:30:51.553Z,42.54
2024-05-09T11:31:51.505Z,44.64
2024-05-09T11:32:51.504Z,45.54
2024-05-09T11:33:51.557Z,46.24
2024-05-09T11:34:51.413Z,45.94
2024-05-09T11:35:51.409Z,45.64
2024-05-09T11:36:51.439Z,45.31
2024-05-09T11:37:51.389Z,43.91
2024-05-09T11:38:51.414Z,44.21
2024-05-09T11:39:51.389Z,44.92
2024-05-09T11:40:51.434Z,43.41
2024-05-09T11:41:51.371Z,43.41
2024-05-09T11:42:53.134Z,44.62
2024-05-09T11:43:51.333Z,45.34
2024-05-09T11:44:51.331Z,45.54
2024-05-09T11:45:51.374Z,46.01
2024-05-09T11:46:51.311Z,46.42
2024-05-09T11:47:51.414Z,45.51
2024-05-09T11:48:51.459Z,47.02
2024-05-09T11:49:51.322Z,46.31
2024-05-09T11:50:51.277Z,45.39
2024-05-09T11:51:51.267Z,45.00
2024-05-09T11:52:51.264Z,45.07
2024-05-09T11:53:51.243Z,44.67
2024-05-09T11:54:51.286Z,44.97
2024-05-09T11:55:51.262Z,46.30
2024-05-09T11:56:51.216Z,45.20
2024-05-09T11:57:51.233Z,45.09
2024-05-09T11:58:51.205Z,46.01
2024-05-09T11:59:51.190Z,45.42
2024-05-09T12:00:51.298Z,46.54
2024-05-09T12:01:51.285Z,46.14
2024-05-09T12:02:51.197Z,46.74
2024-05-09T12:03:51.266Z,46.44
2024-05-09T12:04:51.282Z,46.14
2024-05-09T12:05:51.367Z,45.34
2024-05-09T12:06:51.147Z,46.64
2024-05-09T12:07:51.117Z,45.74
2024-05-09T12:08:51.129Z,44.43
2024-05-09T12:09:51.190Z,44.13
2024-05-09T12:10:51.307Z,44.24
2024-05-09T12:11:51.169Z,44.84
2024-05-09T12:12:51.165Z,45.24
2024-05-09T12:13:51.086Z,45.14
2024-05-09T12:14:51.047Z,44.34
2024-05-09T12:15:51.081Z,44.74
2024-05-09T12:16:51.107Z,45.96
2024-05-09T12:17:51.335Z,44.66
2024-05-09T12:18:51.115Z,46.08
2024-05-09T12:19:51.012Z,46.48
2024-05-09T12:20:51.000Z,46.78
2024-05-09T12:21:51.057Z,46.41
2024-05-09T12:22:50.994Z,46.70
2024-05-09T12:23:50.974Z,46.08
2024-05-09T12:24:50.965Z,46.88
2024-05-09T12:25:50.964Z,44.68
2024-05-09T12:26:50.939Z,44.68
2024-05-09T12:27:51.052Z,45.28
2024-05-09T12:28:50.926Z,45.98
2024-05-09T12:29:50.917Z,45.58
2024-05-09T12:30:50.962Z,46.98
2024-05-09T12:31:50.971Z,46.48
2024-05-09T12:32:51.042Z,46.66
2024-05-09T12:33:50.986Z,46.06
2024-05-09T12:34:50.861Z,46.56
2024-05-09T12:35:51.311Z,46.46
2024-05-09T12:36:50.901Z,47.44
2024-05-09T12:37:50.876Z,47.74
2024-05-09T12:38:50.840Z,45.84
2024-05-09T12:39:50.859Z,45.54
2024-05-09T12:40:50.982Z,46.04
2024-05-09T12:41:50.842Z,45.84
2024-05-09T12:42:50.847Z,45.81
2024-05-09T12:43:50.783Z,46.22
2024-05-09T12:44:50.784Z,47.04
2024-05-09T12:45:50.821Z,46.14
2024-05-09T12:46:50.786Z,45.43
2024-05-09T12:47:50.865Z,45.74
2024-05-09T12:48:50.878Z,45.94
2024-05-09T12:49:50.779Z,45.43
2024-05-09T12:50:50.912Z,45.54
2024-05-09T12:51:50.783Z,46.34
2024-05-09T12:52:50.701Z,46.44
2024-05-09T12:53:50.743Z,45.94
2024-05-09T12:54:50.700Z,45.24
2024-05-09T12:55:56.840Z,45.43